Архив погоды в Иванове

Метеограмма Иваново
Пятница, 27 Апреля
Время местн. Темп Ветер Видим Явления Облачность нижн/средн/верх Атм. давл. Влжн Точка росы ВНГО R Сост. почвы Tg s
Напр Скр Прв ур.ст ур.м изм
06:00 +6° З 5 - 10 км - облачно 743 755 +2.1 83% +3.3° 1 км - Влажная (без луж) - -
03:00 +6.6° З 7 15 10 км небо без изменений {ливневые осадки} облачно 741 753 +2.2 85% +4.3° 600 м - - - -
00:00 +6.7° З 6 13 10 км слабый ливневый дождь облачно 739 751 +2 86% +4.6° 600 м - - - -
Четверг, 26 Апреля
Время местн. Темп Ветер Видим Явления Облачность нижн/средн/верх Атм. давл. Влжн Точка росы ВНГО R Сост. почвы Tg s
Напр Скр Прв ур.ст ур.м изм
21:00 +8.7° З 4 - 10 км слабый ливневый дождь облачно 737 748 +0.4 92% +7.4° 600 м - - - -
18:00 +8.9° Ю-В 5 - 10 км слабый ливневый дождь облачно 737 748 -0.7 91% +7.5° 600 м - - - -
15:00 +11.7° Ю 4 - 10 км - облачно 738 749 -1.3 61% +4.4° 1 км - - - -
12:00 +13.2° Ю 4 - 10 км - облачно 739 750 -1.4 52% +3.6° 1.5 км - - - -
09:00 +7.6° Ю 3 - 4 км дымка облачно 740 751 -0.3 84% +5.1° 300 м - - - -
06:00 +5.9° Ю-В 2 - 4 км дымка облачно 740 752 -0.7 93% +4.9° 200 м 0 Влажная (без луж) +5° -
03:00 +5.8° Ю 3 - 10 км небо без изменений {дождь} облачно 741 753 -1.1 91% +4.4° 600 м - - - -
00:00 +5.8° Ю,Ю-В 2 - 10 км небо без изменений {дождь} облачно 742 754 -1.1 85% +3.5° 1 км - - - -
Среда, 25 Апреля
Время местн. Темп Ветер Видим Явления Облачность нижн/средн/верх Атм. давл. Влжн Точка росы ВНГО R Сост. почвы Tg s
Напр Скр Прв ур.ст ур.м изм
21:00 +6.6° Ю,Ю-В 4 - 10 км небо без изменений {дождь} облачно 743 755 -0.6 79% +3.3° 1 км - - - -
18:00 +7.3° Ю,Ю-В 3 10 10 км дождь облачно 744 755 -0.8 70% +2.3° 1 км 0 - - -
15:00 +9.2° Ю 6 10 10 км - облачно 745 756 -0.3 43% -2.6° 1 км - - - -
12:00 +10.7° Ю 4 - 10 км - облачно 745 756 -0.6 31% -5.7° - - - - -
09:00 +7.5° Ю,Ю-В 5 - 10 км - облачно 746 757 -0.5 37% -6.4° более 2.5 км - - - -
06:00 +1.2° Ю-В 4 - 10 км - облачно 746 758 -0.4 59% -5.8° более 2.5 км - Замерзшая - -
03:00 -1° Ю-В 2 - 10 км - переменная облачность 747 759 -0.5 62% -7.3° более 2.5 км - - - -
00:00 +0.4° Ю-В 2 - 10 км - переменная облачность 747 759 -0.4 58% -6.8° более 2.5 км - - - -
Вторник, 24 Апреля
Время местн. Темп Ветер Видим Явления Облачность нижн/средн/верх Атм. давл. Влжн Точка росы ВНГО R Сост. почвы Tg s
Напр Скр Прв ур.ст ур.м изм
21:00 +1.9° Ю-В 1 - 10 км - переменная облачность 747 759 +0.2 58% -5.5° более 2.5 км - - - -
18:00 +9.4° С 3 - 10 км - переменная облачность 747 759 -0.8 23% -10.7° более 2.5 км - - - -
15:00 +9.2° С-З 4 - 10 км - ясно 748 759 -0.8 26% -9.4° более 2.5 км - - - -
12:00 +6.5° С 4 - 10 км - ясно 749 760 -0.4 28% -10.5° более 2.5 км - - - -
09:00 +3.6° С,С-З 5 - 10 км - ясно 749 761 +0.3 38% -9.5° более 2.5 км - - - -
06:00 -3.4° З,С-З 2 - 10 км - ясно 749 761 +0.7 78% -6.6° более 2.5 км - Замерзшая - -
03:00 -4.2° З,С-З 2 - 10 км - ясно 748 760 +0.5 77% -7.6° более 2.5 км - - - -